Time;durP1;ratioP1;P1;durP2;ratioP2;P2;SDS_P1;SDS_P2;PMS_P1;PMS_P2;Temp;Humidity;BMP_temperature;BMP_pressure;BME280_temperature;BME280_humidity;BME280_pressure;Samples;Min_cycle;Max_cycle;Signal;HPM_P1;HPM_P2
2023/07/07 00:00:42;;;;;;;4.55;2.05;;;17.90;99.90;;;;;;4989144;28;20030;-74
2023/07/07 00:03:08;;;;;;;5.18;3.08;;;17.80;99.90;;;;;;4986293;28;20059;-74
2023/07/07 00:05:34;;;;;;;7.78;2.65;;;17.80;99.90;;;;;;4987783;28;20424;-74
2023/07/07 00:08:00;;;;;;;4.53;2.28;;;17.90;99.90;;;;;;4989891;28;20544;-75
2023/07/07 00:10:26;;;;;;;6.15;2.25;;;17.80;99.90;;;;;;4988296;28;20113;-75
2023/07/07 00:12:51;;;;;;;4.20;2.25;;;18.00;99.90;;;;;;4986693;28;20117;-74
2023/07/07 00:15:18;;;;;;;5.85;2.45;;;18.00;99.90;;;;;;4987904;28;20030;-75
2023/07/07 00:17:47;;;;;;;6.72;2.13;;;17.90;99.90;;;;;;4986361;28;20157;-75
2023/07/07 00:20:14;;;;;;;7.55;2.90;;;17.80;99.90;;;;;;4986529;28;20030;-75
2023/07/07 00:22:40;;;;;;;5.20;2.50;;;17.70;99.90;;;;;;4989187;28;20072;-74
2023/07/07 00:25:07;;;;;;;5.53;2.83;;;17.80;99.90;;;;;;4983346;28;20539;-75
2023/07/07 00:27:33;;;;;;;4.57;2.22;;;17.70;99.90;;;;;;4987674;28;20121;-75
2023/07/07 00:29:59;;;;;;;5.45;2.30;;;17.70;99.90;;;;;;4987620;28;20419;-74
2023/07/07 00:32:25;;;;;;;4.72;2.40;;;17.80;99.90;;;;;;4987354;28;20030;-75
2023/07/07 00:34:51;;;;;;;9.88;2.55;;;17.90;99.90;;;;;;4982656;28;20038;-74
2023/07/07 00:37:16;;;;;;;6.28;2.38;;;17.70;99.90;;;;;;4988658;28;20419;-75
2023/07/07 00:39:42;;;;;;;4.68;2.28;;;17.70;99.90;;;;;;4987926;28;20034;-75
2023/07/07 00:42:11;;;;;;;5.28;2.20;;;17.60;99.90;;;;;;4987889;28;20097;-75
2023/07/07 00:45:07;;;;;;;4.72;2.20;;;17.50;99.90;;;;;;4988039;28;20022;-75
2023/07/07 00:47:37;;;;;;;4.78;1.98;;;17.60;99.90;;;;;;4988504;28;20038;-75
2023/07/07 00:50:03;;;;;;;4.07;1.80;;;17.70;99.90;;;;;;4985680;28;20493;-75
2023/07/07 00:52:29;;;;;;;5.35;2.90;;;17.70;99.90;;;;;;4982099;28;20034;-74
2023/07/07 00:54:55;;;;;;;3.80;1.83;;;17.90;99.90;;;;;;4986348;28;20084;-75
2023/07/07 00:57:21;;;;;;;5.13;2.00;;;17.70;99.90;;;;;;4988344;28;20042;-75
2023/07/07 00:59:47;;;;;;;7.57;2.65;;;17.50;99.90;;;;;;4987580;28;20152;-74
2023/07/07 01:02:24;;;;;;;5.82;1.75;;;17.30;99.90;;;;;;4986251;28;20378;-75
2023/07/07 01:04:53;;;;;;;7.38;2.83;;;17.20;99.90;;;;;;4988521;28;20485;-74
2023/07/07 01:07:28;;;;;;;7.60;2.45;;;17.40;99.90;;;;;;4987811;28;20492;-74
2023/07/07 01:09:54;;;;;;;6.07;2.75;;;17.40;99.90;;;;;;4985497;28;20026;-75
2023/07/07 01:12:19;;;;;;;5.35;2.20;;;17.30;99.90;;;;;;4986681;28;20093;-74
2023/07/07 01:14:47;;;;;;;5.90;2.78;;;17.30;99.90;;;;;;4987217;28;20034;-75
2023/07/07 01:17:20;;;;;;;6.40;2.47;;;17.10;99.90;;;;;;4988314;28;20468;-74
2023/07/07 01:20:07;;;;;;;5.43;1.92;;;17.00;99.90;;;;;;4989539;28;20065;-75
2023/07/07 01:22:45;;;;;;;5.50;2.20;;;17.10;99.90;;;;;;4989147;28;20098;-74
2023/07/07 01:25:29;;;;;;;8.52;2.65;;;17.10;99.90;;;;;;4989319;28;20030;-75
2023/07/07 01:28:07;;;;;;;5.05;2.45;;;17.20;99.90;;;;;;4990179;28;20046;-75
2023/07/07 01:30:44;;;;;;;6.20;2.50;;;17.20;99.90;;;;;;4989336;28;20050;-75
2023/07/07 01:33:13;;;;;;;4.57;2.10;;;17.10;99.90;;;;;;4986511;28;20102;-74
2023/07/07 01:35:39;;;;;;;6.93;2.85;;;17.10;99.90;;;;;;4991622;28;20556;-74
2023/07/07 01:38:05;;;;;;;6.25;2.22;;;17.10;99.90;;;;;;4990840;28;20038;-74
2023/07/07 01:40:52;;;;;;;6.10;2.50;;;16.90;99.90;;;;;;4989099;28;20125;-75
2023/07/07 01:43:28;;;;;;;6.03;2.67;;;17.10;99.90;;;;;;4989795;28;20030;-74
2023/07/07 01:46:20;;;;;;;5.15;2.90;;;17.00;99.90;;;;;;4988103;28;20034;-75
2023/07/07 01:48:55;;;;;;;4.05;2.05;;;17.10;99.90;;;;;;4980583;28;20481;-75
2023/07/07 01:51:26;;;;;;;4.90;2.33;;;16.90;99.90;;;;;;4986058;28;20058;-75
2023/07/07 01:53:53;;;;;;;4.53;2.25;;;16.70;99.90;;;;;;4989816;28;20018;-75
2023/07/07 01:56:24;;;;;;;5.95;2.40;;;16.80;99.90;;;;;;4990302;28;20034;-75
2023/07/07 01:58:50;;;;;;;4.10;2.03;;;16.70;99.90;;;;;;4989609;28;20038;-74
2023/07/07 02:01:16;;;;;;;7.57;3.05;;;16.60;99.90;;;;;;4989992;28;20041;-75
2023/07/07 02:03:42;;;;;;;5.03;2.53;;;16.40;99.90;;;;;;4989331;28;20031;-74
2023/07/07 02:06:07;;;;;;;5.18;2.22;;;16.50;99.90;;;;;;4990898;28;20026;-74
2023/07/07 02:08:33;;;;;;;6.50;2.92;;;16.50;99.90;;;;;;4991168;28;20380;-74
2023/07/07 02:10:59;;;;;;;5.80;2.75;;;16.50;99.90;;;;;;4977101;28;20030;-74
2023/07/07 02:13:24;;;;;;;5.45;2.67;;;16.50;99.90;;;;;;4988787;28;20030;-75
2023/07/07 02:15:51;;;;;;;5.78;2.70;;;16.60;99.90;;;;;;4989163;28;20077;-75
2023/07/07 02:18:18;;;;;;;5.72;2.65;;;16.60;99.90;;;;;;4990088;28;20033;-74
2023/07/07 02:20:44;;;;;;;4.88;2.42;;;16.60;99.90;;;;;;4986886;28;20041;-74
2023/07/07 02:23:09;;;;;;;4.75;2.30;;;16.60;99.90;;;;;;4990792;28;20030;-75
2023/07/07 02:25:35;;;;;;;7.22;2.80;;;16.50;99.90;;;;;;4987515;28;20105;-74
2023/07/07 02:28:01;;;;;;;5.30;3.10;;;16.50;99.90;;;;;;4987666;28;20050;-74
2023/07/07 02:30:26;;;;;;;10.30;2.97;;;16.30;99.90;;;;;;4990013;28;20440;-75
2023/07/07 02:32:52;;;;;;;6.35;3.20;;;16.40;99.90;;;;;;4987895;28;20077;-74
2023/07/07 02:35:18;;;;;;;5.80;2.17;;;16.30;99.90;;;;;;4989060;28;20027;-75
2023/07/07 02:37:44;;;;;;;7.28;2.97;;;16.30;99.90;;;;;;4987032;28;20047;-74
2023/07/07 02:40:10;;;;;;;8.10;3.15;;;16.50;99.90;;;;;;4988689;28;20021;-74
2023/07/07 02:42:36;;;;;;;7.05;2.50;;;16.50;99.90;;;;;;4988346;28;20539;-74
2023/07/07 02:45:02;;;;;;;4.80;2.10;;;16.30;99.90;;;;;;4990159;28;20069;-74
2023/07/07 02:47:28;;;;;;;6.15;2.88;;;15.90;99.90;;;;;;4977252;28;20030;-74
2023/07/07 02:49:54;;;;;;;9.65;2.70;;;16.00;99.90;;;;;;4988900;28;20030;-74
2023/07/07 02:52:20;;;;;;;6.13;3.15;;;16.00;99.90;;;;;;4989772;28;20537;-74
2023/07/07 02:54:46;;;;;;;6.57;2.65;;;15.90;99.90;;;;;;4988527;28;21058;-74
2023/07/07 02:57:11;;;;;;;5.47;2.63;;;16.00;99.90;;;;;;4987906;28;20492;-74
2023/07/07 02:59:37;;;;;;;4.57;2.38;;;15.80;99.90;;;;;;4989282;28;20028;-74
2023/07/07 03:02:03;;;;;;;5.45;2.55;;;15.60;99.90;;;;;;4982824;28;20026;-74
2023/07/07 03:04:29;;;;;;;9.90;3.03;;;15.40;99.90;;;;;;4981253;28;20030;-74
2023/07/07 03:06:54;;;;;;;4.95;2.70;;;15.50;99.90;;;;;;4985251;28;20381;-75
2023/07/07 03:09:20;;;;;;;5.70;2.45;;;15.60;99.90;;;;;;4984255;28;20022;-75
2023/07/07 03:11:46;;;;;;;7.07;2.45;;;15.80;99.90;;;;;;4984462;28;20085;-74
2023/07/07 03:14:11;;;;;;;6.68;2.95;;;15.70;99.90;;;;;;4984057;28;20037;-74
2023/07/07 03:16:46;;;;;;;5.88;2.90;;;15.70;99.90;;;;;;4983385;28;20118;-74
2023/07/07 03:19:12;;;;;;;5.00;2.55;;;15.90;99.90;;;;;;4980647;28;20018;-74
2023/07/07 03:21:38;;;;;;;4.65;2.50;;;15.90;99.90;;;;;;4982782;28;20042;-74
2023/07/07 03:24:04;;;;;;;8.52;2.53;;;15.80;99.90;;;;;;4982285;28;20073;-74
2023/07/07 03:26:30;;;;;;;6.10;2.25;;;15.70;99.90;;;;;;4983769;28;20054;-74
2023/07/07 03:28:56;;;;;;;5.65;2.72;;;15.60;99.90;;;;;;4983442;28;20491;-74
2023/07/07 03:31:23;;;;;;;5.85;2.78;;;15.50;99.90;;;;;;4983669;28;20030;-74
2023/07/07 03:33:51;;;;;;;7.68;2.90;;;15.50;99.90;;;;;;4983858;28;20069;-74
2023/07/07 03:36:21;;;;;;;8.35;2.78;;;15.40;99.90;;;;;;4985695;28;20588;-74
2023/07/07 03:38:46;;;;;;;6.72;2.85;;;15.30;99.90;;;;;;4984135;28;20026;-74
2023/07/07 03:41:18;;;;;;;7.18;2.80;;;15.30;99.90;;;;;;4984351;28;20022;-74
2023/07/07 03:43:45;;;;;;;8.77;3.42;;;15.30;99.90;;;;;;4983384;28;20034;-74
2023/07/07 03:46:21;;;;;;;8.13;3.63;;;15.30;99.90;;;;;;4984423;28;20038;-74
2023/07/07 03:48:48;;;;;;;5.50;2.50;;;15.40;99.90;;;;;;4984722;28;20037;-74
2023/07/07 03:51:16;;;;;;;4.72;2.33;;;15.60;99.90;;;;;;4983312;28;20030;-74
2023/07/07 03:53:42;;;;;;;5.30;2.42;;;15.70;99.90;;;;;;4982393;28;20536;-74
2023/07/07 03:56:09;;;;;;;5.43;2.83;;;15.90;99.90;;;;;;4983788;28;20460;-74
2023/07/07 03:58:35;;;;;;;6.78;3.20;;;15.80;99.90;;;;;;4979613;28;20030;-74
2023/07/07 04:01:05;;;;;;;9.98;3.75;;;15.80;99.90;;;;;;4980778;28;20462;-74
2023/07/07 04:03:31;;;;;;;17.75;3.90;;;15.90;99.90;;;;;;4980834;28;20073;-74
2023/07/07 04:05:58;;;;;;;7.68;2.60;;;15.90;99.90;;;;;;4980680;28;20038;-74
2023/07/07 04:08:26;;;;;;;8.82;3.58;;;16.00;99.90;;;;;;4980232;28;20105;-74
2023/07/07 04:11:01;;;;;;;6.65;2.63;;;15.90;99.90;;;;;;4981856;28;20071;-74
2023/07/07 04:13:33;;;;;;;6.55;2.92;;;15.90;99.90;;;;;;4980857;28;20034;-74
2023/07/07 04:16:10;;;;;;;5.93;2.50;;;15.90;99.90;;;;;;4980299;28;20034;-74
2023/07/07 04:18:37;;;;;;;5.60;2.70;;;15.80;99.90;;;;;;4979681;28;20076;-74
2023/07/07 04:21:06;;;;;;;6.40;2.95;;;15.90;99.90;;;;;;4979120;28;20034;-74
2023/07/07 04:23:33;;;;;;;7.03;2.75;;;15.90;99.90;;;;;;4979673;28;20570;-74
2023/07/07 04:25:59;;;;;;;8.10;3.00;;;15.80;99.90;;;;;;4980879;28;20026;-74
2023/07/07 04:28:25;;;;;;;6.15;2.33;;;15.80;99.90;;;;;;4980299;28;20088;-74
2023/07/07 04:30:52;;;;;;;6.65;3.10;;;16.00;99.90;;;;;;4979776;28;20350;-74
2023/07/07 04:33:18;;;;;;;6.93;2.95;;;15.90;99.90;;;;;;4979908;28;20026;-74
2023/07/07 04:35:44;;;;;;;6.22;2.72;;;15.90;99.90;;;;;;4979400;28;20046;-74
2023/07/07 04:38:10;;;;;;;6.07;3.08;;;15.90;99.90;;;;;;4973188;28;20480;-74
2023/07/07 04:40:36;;;;;;;7.20;3.28;;;15.90;99.90;;;;;;4979675;28;20065;-74
2023/07/07 04:43:01;;;;;;;7.18;3.40;;;15.80;99.90;;;;;;4979214;28;20050;-74
2023/07/07 04:45:27;;;;;;;5.65;2.55;;;15.80;99.90;;;;;;4980871;28;20042;-75
2023/07/07 04:47:53;;;;;;;6.28;3.00;;;15.90;99.90;;;;;;4979098;28;20109;-74
2023/07/07 04:50:19;;;;;;;5.55;2.88;;;15.80;99.90;;;;;;4980412;28;20022;-74
2023/07/07 04:52:44;;;;;;;8.70;3.42;;;15.90;99.90;;;;;;4977471;28;20034;-74
2023/07/07 04:55:10;;;;;;;6.10;2.97;;;16.00;99.90;;;;;;4985399;28;20026;-74
2023/07/07 04:57:35;;;;;;;6.50;3.60;;;16.10;99.90;;;;;;4983756;28;20727;-74
2023/07/07 05:00:07;;;;;;;8.90;4.03;;;16.10;99.90;;;;;;4985613;28;20472;-74
2023/07/07 05:02:35;;;;;;;5.75;3.00;;;16.00;99.90;;;;;;4982819;28;20861;-74
2023/07/07 05:05:02;;;;;;;5.95;2.88;;;16.00;99.90;;;;;;4981401;28;20037;-74
2023/07/07 05:07:28;;;;;;;5.40;2.92;;;15.90;99.90;;;;;;4984065;28;20031;-74
2023/07/07 05:09:55;;;;;;;9.32;3.83;;;16.00;99.90;;;;;;4985053;28;20535;-74
2023/07/07 05:12:20;;;;;;;6.47;2.75;;;16.00;99.90;;;;;;4982831;28;20038;-74
2023/07/07 05:14:46;;;;;;;7.07;2.72;;;16.00;99.90;;;;;;4982579;28;20106;-74
2023/07/07 05:17:12;;;;;;;5.43;3.10;;;15.90;99.90;;;;;;4984046;28;20654;-74
2023/07/07 05:19:37;;;;;;;5.47;2.88;;;16.00;99.90;;;;;;4983469;28;20132;-74
2023/07/07 05:22:03;;;;;;;5.13;2.47;;;15.90;99.90;;;;;;4983580;28;20034;-75
2023/07/07 05:24:29;;;;;;;7.00;2.67;;;16.00;99.90;;;;;;4983792;28;20117;-74
2023/07/07 05:26:55;;;;;;;5.97;3.00;;;16.00;99.90;;;;;;4983362;28;20651;-74
2023/07/07 05:29:22;;;;;;;8.25;3.20;;;16.00;99.90;;;;;;4981443;28;20034;-75
2023/07/07 05:31:48;;;;;;;7.25;3.60;;;16.00;99.90;;;;;;4984053;28;20039;-74
2023/07/07 05:34:14;;;;;;;8.30;3.38;;;16.00;99.90;;;;;;4982476;28;20068;-74
2023/07/07 05:36:40;;;;;;;7.85;3.30;;;16.10;99.90;;;;;;4983637;28;20070;-74
2023/07/07 05:39:06;;;;;;;5.63;2.80;;;16.10;99.90;;;;;;4983693;28;20519;-74
2023/07/07 05:41:32;;;;;;;6.85;3.38;;;16.10;99.90;;;;;;4983132;28;20022;-74
2023/07/07 05:43:58;;;;;;;5.38;2.58;;;16.10;99.90;;;;;;4982396;28;20393;-74
2023/07/07 05:46:24;;;;;;;5.63;3.03;;;16.10;99.90;;;;;;4982661;28;20026;-74
2023/07/07 05:48:50;;;;;;;6.20;2.88;;;16.20;99.90;;;;;;4983114;28;20042;-74
2023/07/07 05:51:18;;;;;;;6.28;3.00;;;16.20;99.90;;;;;;4982230;28;20034;-74
2023/07/07 05:53:43;;;;;;;9.18;3.08;;;16.30;99.90;;;;;;4983460;28;20037;-74
2023/07/07 05:56:13;;;;;;;6.30;3.13;;;16.30;99.90;;;;;;4982550;28;20038;-75
2023/07/07 05:58:39;;;;;;;6.10;3.50;;;16.60;99.90;;;;;;4983309;28;20595;-74
2023/07/07 06:01:05;;;;;;;6.03;3.10;;;16.60;99.90;;;;;;4983559;28;20026;-74
2023/07/07 06:03:31;;;;;;;9.63;2.88;;;16.80;99.90;;;;;;4979742;28;20094;-74
2023/07/07 06:05:57;;;;;;;5.78;3.08;;;16.80;99.90;;;;;;4983284;28;20030;-74
2023/07/07 06:08:23;;;;;;;5.38;2.70;;;16.80;99.90;;;;;;4983230;28;20037;-74
2023/07/07 06:10:49;;;;;;;7.15;3.00;;;16.90;99.90;;;;;;4978059;28;20026;-74
2023/07/07 06:13:17;;;;;;;7.25;3.00;;;16.90;99.90;;;;;;4980386;28;20037;-74
2023/07/07 06:15:44;;;;;;;12.13;3.75;;;16.90;99.90;;;;;;4982773;28;20041;-75
2023/07/07 06:18:10;;;;;;;7.30;2.80;;;17.00;99.90;;;;;;4980931;28;20097;-75
2023/07/07 06:20:36;;;;;;;7.72;3.53;;;17.10;99.90;;;;;;4979107;28;20038;-75
2023/07/07 06:23:03;;;;;;;6.40;3.40;;;17.10;99.90;;;;;;4981145;28;20038;-74
2023/07/07 06:25:28;;;;;;;6.20;3.20;;;17.10;99.90;;;;;;4980853;28;20045;-74
2023/07/07 06:27:54;;;;;;;5.75;2.80;;;17.10;99.90;;;;;;4983765;28;20046;-73
2023/07/07 06:30:20;;;;;;;8.45;3.70;;;17.00;99.90;;;;;;4981759;28;20022;-77
2023/07/07 06:32:46;;;;;;;5.93;2.75;;;17.10;99.90;;;;;;4988593;28;20101;-75
2023/07/07 06:35:11;;;;;;;7.85;3.10;;;17.20;99.90;;;;;;4985250;28;20030;-73
2023/07/07 06:37:37;;;;;;;5.20;3.08;;;17.10;99.90;;;;;;4984710;28;20034;-73
2023/07/07 06:40:03;;;;;;;6.75;3.80;;;17.20;99.90;;;;;;4979843;28;20041;-73
2023/07/07 06:42:28;;;;;;;6.07;3.20;;;17.30;99.90;;;;;;4983732;28;20089;-74
2023/07/07 06:44:54;;;;;;;9.90;3.03;;;17.30;99.90;;;;;;4984271;28;20030;-74
2023/07/07 06:47:20;;;;;;;5.97;3.03;;;17.40;99.90;;;;;;4982524;28;20481;-73
2023/07/07 06:49:45;;;;;;;9.13;3.17;;;17.50;99.90;;;;;;4984260;28;20046;-75
2023/07/07 06:52:11;;;;;;;7.20;3.00;;;17.60;99.90;;;;;;4986168;28;20034;-75
2023/07/07 06:54:37;;;;;;;5.75;3.42;;;17.70;99.90;;;;;;4982871;28;20030;-75
2023/07/07 06:57:02;;;;;;;5.75;3.20;;;17.80;99.90;;;;;;4983040;28;20050;-74
2023/07/07 06:59:28;;;;;;;6.85;2.67;;;17.90;99.90;;;;;;4981583;28;20113;-74
2023/07/07 07:01:54;;;;;;;6.53;3.30;;;18.00;99.90;;;;;;4983968;28;20110;-73
2023/07/07 07:04:20;;;;;;;6.85;3.45;;;18.20;99.90;;;;;;4983326;28;20030;-75
2023/07/07 07:06:45;;;;;;;7.88;3.20;;;18.40;99.90;;;;;;4985158;28;20100;-73
2023/07/07 07:09:11;;;;;;;8.02;3.40;;;18.60;99.90;;;;;;4983422;28;20034;-73
2023/07/07 07:11:38;;;;;;;6.97;3.80;;;19.00;99.90;;;;;;4983629;28;20093;-74
2023/07/07 07:14:03;;;;;;;6.70;3.28;;;19.20;99.90;;;;;;4983525;28;20080;-71
2023/07/07 07:16:29;;;;;;;6.38;3.25;;;19.30;99.90;;;;;;4982986;28;20038;-72
2023/07/07 07:18:55;;;;;;;8.68;3.63;;;19.60;99.90;;;;;;4983810;28;20445;-73
2023/07/07 07:21:20;;;;;;;5.82;3.08;;;19.80;99.90;;;;;;4985469;28;20030;-72
2023/07/07 07:23:46;;;;;;;5.55;3.40;;;20.00;99.90;;;;;;4982578;28;20132;-75
2023/07/07 07:26:12;;;;;;;7.45;3.35;;;20.20;99.90;;;;;;4984651;28;20030;-73
2023/07/07 07:28:38;;;;;;;6.30;3.42;;;20.30;99.90;;;;;;4983040;28;20054;-74
2023/07/07 07:31:03;;;;;;;5.97;3.38;;;20.60;99.90;;;;;;4986637;28;20022;-74
2023/07/07 07:33:29;;;;;;;6.25;3.35;;;21.00;99.90;;;;;;4987446;28;20385;-74
2023/07/07 07:35:55;;;;;;;5.97;3.60;;;22.00;99.90;;;;;;4984968;28;20022;-73
2023/07/07 07:38:21;;;;;;;6.70;3.25;;;23.00;99.40;;;;;;4985471;28;20054;-74
2023/07/07 07:40:50;;;;;;;6.82;3.72;;;23.90;97.40;;;;;;4988650;28;20477;-75
2023/07/07 07:43:15;;;;;;;5.93;3.72;;;25.20;96.10;;;;;;4988574;28;20093;-75
2023/07/07 07:45:41;;;;;;;7.70;4.00;;;26.40;95.10;;;;;;4988521;28;20029;-73
2023/07/07 07:48:07;;;;;;;7.55;3.80;;;27.10;94.80;;;;;;4987191;28;20639;-73
2023/07/07 07:50:33;;;;;;;7.30;3.35;;;27.30;94.40;;;;;;4987442;28;20396;-73
2023/07/07 07:52:59;;;;;;;6.80;3.10;;;27.40;93.50;;;;;;4987415;28;20029;-73
2023/07/07 07:55:26;;;;;;;6.05;3.40;;;26.60;94.40;;;;;;4986938;28;20040;-73
2023/07/07 07:57:51;;;;;;;7.55;3.35;;;25.60;94.20;;;;;;4986812;28;20121;-73
2023/07/07 08:00:18;;;;;;;6.72;3.60;;;24.80;94.60;;;;;;4988352;28;20102;-74
2023/07/07 08:02:44;;;;;;;9.30;3.08;;;23.80;95.50;;;;;;4997723;28;20083;-73
2023/07/07 08:05:10;;;;;;;6.32;3.55;;;23.40;96.30;;;;;;4998728;28;20354;-73
2023/07/07 08:07:36;;;;;;;6.45;3.60;;;22.90;97.00;;;;;;4986947;28;20045;-74
2023/07/07 08:10:03;;;;;;;8.02;3.15;;;23.30;97.50;;;;;;4988276;28;20396;-73
2023/07/07 08:12:29;;;;;;;8.50;4.05;;;23.60;97.60;;;;;;4986561;28;20109;-72
2023/07/07 08:14:55;;;;;;;5.85;3.45;;;23.20;97.20;;;;;;4986886;28;20054;-73
2023/07/07 08:17:21;;;;;;;7.45;3.40;;;22.90;97.60;;;;;;4986101;28;20088;-73
2023/07/07 08:19:46;;;;;;;9.30;3.63;;;22.50;97.10;;;;;;4987491;28;20065;-72
2023/07/07 08:22:16;;;;;;;6.30;3.58;;;22.60;98.60;;;;;;4986518;28;20069;-72
2023/07/07 08:24:48;;;;;;;12.40;3.75;;;22.60;97.70;;;;;;4988304;28;20481;-72
2023/07/07 08:27:15;;;;;;;6.82;3.58;;;22.70;98.40;;;;;;4987000;28;20570;-72
2023/07/07 08:29:41;;;;;;;7.05;3.45;;;22.80;98.00;;;;;;4984247;28;20121;-73
2023/07/07 08:32:13;;;;;;;6.72;3.22;;;22.90;97.90;;;;;;4984300;28;20048;-72
2023/07/07 08:34:39;;;;;;;5.75;3.25;;;23.10;97.70;;;;;;4983540;28;20029;-73
2023/07/07 08:37:06;;;;;;;7.63;3.42;;;23.00;98.40;;;;;;4996405;28;20030;-73
2023/07/07 08:39:33;;;;;;;8.73;4.03;;;23.10;98.70;;;;;;4992307;28;20037;-73
2023/07/07 08:42:05;;;;;;;7.97;3.80;;;23.20;98.30;;;;;;4979713;28;20129;-73
2023/07/07 08:44:34;;;;;;;5.68;3.92;;;23.20;97.30;;;;;;4984836;28;20057;-73
2023/07/07 08:47:18;;;;;;;7.78;4.72;;;22.50;97.90;;;;;;4975310;28;20037;-72
2023/07/07 08:49:59;;;;;;;6.05;3.40;;;22.60;98.40;;;;;;4980292;28;20120;-72
2023/07/07 08:52:42;;;;;;;7.22;3.85;;;23.10;98.00;;;;;;4980709;28;20035;-72
2023/07/07 08:55:29;;;;;;;7.93;3.72;;;23.30;97.90;;;;;;4975248;28;20031;-72
2023/07/07 08:58:04;;;;;;;8.05;3.95;;;23.70;98.60;;;;;;4982190;28;20704;-72
2023/07/07 09:00:59;;;;;;;6.78;3.63;;;23.60;97.60;;;;;;4982723;28;20038;-73
2023/07/07 09:04:05;;;;;;;6.07;3.47;;;23.30;98.30;;;;;;4983412;28;20037;-73
2023/07/07 09:06:54;;;;;;;7.10;3.60;;;23.40;98.50;;;;;;4972668;28;20463;-72
2023/07/07 09:09:26;;;;;;;8.10;3.42;;;23.90;97.10;;;;;;4983150;28;20026;-73
2023/07/07 09:12:16;;;;;;;7.65;3.90;;;23.50;96.40;;;;;;4983983;28;20388;-72
2023/07/07 09:14:45;;;;;;;8.32;3.85;;;23.50;96.90;;;;;;4965536;28;20548;-73
2023/07/07 09:17:39;;;;;;;8.45;3.55;;;23.60;97.50;;;;;;4984304;28;20070;-73
2023/07/07 09:20:08;;;;;;;6.07;3.47;;;24.00;97.70;;;;;;4983617;28;20045;-74
2023/07/07 09:22:46;;;;;;;6.28;3.40;;;24.30;97.20;;;;;;4984436;28;20030;-74
2023/07/07 09:25:20;;;;;;;6.93;3.67;;;24.20;96.40;;;;;;4984857;28;20049;-73
2023/07/07 09:28:02;;;;;;;12.98;4.03;;;24.50;96.20;;;;;;4984205;28;20042;-73
2023/07/07 09:30:30;;;;;;;6.93;3.67;;;24.60;96.20;;;;;;4983711;28;20030;-73
2023/07/07 09:32:56;;;;;;;5.43;3.15;;;24.10;96.30;;;;;;4983394;28;20073;-73
2023/07/07 09:35:27;;;;;;;4.93;3.08;;;24.20;97.60;;;;;;4983945;28;20029;-73
2023/07/07 09:38:18;;;;;;;7.75;3.83;;;24.00;96.10;;;;;;4986594;28;20077;-72
2023/07/07 09:41:18;;;;;;;7.78;3.55;;;24.40;96.40;;;;;;4985939;28;20026;-73
2023/07/07 09:43:49;;;;;;;7.60;4.00;;;24.70;96.80;;;;;;4980492;28;20030;-73
2023/07/07 09:46:26;;;;;;;8.45;3.53;;;24.80;95.00;;;;;;4975484;28;20126;-74
2023/07/07 09:49:01;;;;;;;6.25;3.50;;;24.90;95.60;;;;;;4984712;28;20089;-74
2023/07/07 09:51:46;;;;;;;6.03;3.38;;;25.00;96.30;;;;;;4983925;28;20627;-74
2023/07/07 09:54:15;;;;;;;9.63;4.22;;;25.20;95.30;;;;;;4987595;28;20030;-74
2023/07/07 09:57:05;;;;;;;7.15;4.20;;;25.20;96.40;;;;;;4986037;28;20121;-73
2023/07/07 09:59:41;;;;;;;6.20;3.45;;;25.20;96.10;;;;;;4985113;28;20026;-73
2023/07/07 10:02:21;;;;;;;6.65;3.42;;;25.20;95.50;;;;;;4985932;28;20051;-73
2023/07/07 10:04:54;;;;;;;6.28;3.60;;;25.50;95.30;;;;;;4993283;28;20130;-75
2023/07/07 10:07:21;;;;;;;6.95;3.47;;;26.00;95.70;;;;;;4986853;28;20029;-74
2023/07/07 10:09:46;;;;;;;8.93;3.88;;;26.20;94.30;;;;;;4987904;28;20046;-74
2023/07/07 10:12:17;;;;;;;5.68;3.47;;;26.10;94.60;;;;;;4988121;28;20073;-74
2023/07/07 10:14:43;;;;;;;7.28;3.40;;;25.90;93.30;;;;;;4990452;28;20030;-74
2023/07/07 10:17:09;;;;;;;7.22;4.25;;;25.40;93.30;;;;;;4987731;28;20049;-73
2023/07/07 10:19:54;;;;;;;9.05;3.60;;;25.40;93.10;;;;;;4983947;28;20069;-74
2023/07/07 10:22:21;;;;;;;6.22;4.00;;;25.30;94.20;;;;;;4985935;28;20646;-74
2023/07/07 10:24:47;;;;;;;7.55;4.25;;;25.60;94.10;;;;;;4987568;28;20035;-74
2023/07/07 10:27:16;;;;;;;6.35;3.60;;;25.50;93.80;;;;;;4988280;28;20027;-74
2023/07/07 10:29:43;;;;;;;7.10;3.60;;;25.20;94.20;;;;;;4988015;28;20069;-74
2023/07/07 10:32:15;;;;;;;6.88;3.55;;;25.70;94.20;;;;;;4989503;28;20081;-73
2023/07/07 10:34:48;;;;;;;7.32;3.25;;;25.80;94.40;;;;;;4989994;28;20085;-74
2023/07/07 10:37:33;;;;;;;6.03;3.25;;;25.80;94.40;;;;;;4970845;28;20070;-73
2023/07/07 10:40:01;;;;;;;5.75;3.58;;;26.30;93.70;;;;;;4974901;28;20038;-74
2023/07/07 10:42:29;;;;;;;7.00;4.03;;;26.50;94.10;;;;;;4988507;28;20023;-74
2023/07/07 10:44:58;;;;;;;7.05;3.63;;;26.40;93.90;;;;;;4989675;28;20034;-74
2023/07/07 10:47:29;;;;;;;6.13;3.85;;;26.40;92.90;;;;;;4987117;28;20080;-74
2023/07/07 10:49:58;;;;;;;6.03;3.28;;;26.50;93.50;;;;;;4983234;28;20505;-74
2023/07/07 10:52:52;;;;;;;10.18;4.10;;;26.50;93.90;;;;;;4981909;28;20030;-74
2023/07/07 10:55:31;;;;;;;6.35;3.78;;;26.50;92.90;;;;;;4984165;28;20035;-74
2023/07/07 10:57:56;;;;;;;7.93;3.35;;;26.70;93.90;;;;;;4988063;28;20061;-73
2023/07/07 11:00:40;;;;;;;6.30;3.50;;;26.60;93.70;;;;;;4983553;28;20089;-74
2023/07/07 11:03:23;;;;;;;;;;;27.10;93.70;;;;;;4982394;28;20693;-73
2023/07/07 11:06:13;;;;;;;5.82;3.28;;;27.20;93.60;;;;;;4979684;28;19921;-73
2023/07/07 11:08:54;;;;;;;5.72;3.08;;;27.20;93.30;;;;;;4982164;28;20023;-74
2023/07/07 11:11:52;;;;;;;8.23;3.72;;;27.40;93.80;;;;;;4968876;28;20039;-73
2023/07/07 11:14:30;;;;;;;7.90;3.25;;;27.30;92.50;;;;;;4969882;28;20500;-74
2023/07/07 11:17:16;;;;;;;6.05;3.70;;;27.00;92.30;;;;;;4976497;28;20057;-75
2023/07/07 11:20:08;;;;;;;5.35;3.50;;;27.20;92.50;;;;;;4979082;28;20073;-74
2023/07/07 11:22:59;;;;;;;7.07;3.58;;;26.90;92.30;;;;;;4965828;28;20054;-74
2023/07/07 11:25:34;;;;;;;7.20;3.58;;;26.70;92.00;;;;;;4983944;28;20076;-76
2023/07/07 11:28:31;;;;;;;5.32;3.47;;;27.00;93.30;;;;;;4981214;28;20050;-74
2023/07/07 11:31:36;;;;;;;6.57;3.42;;;27.40;93.90;;;;;;4984423;28;20105;-75
2023/07/07 11:34:24;;;;;;;6.85;3.45;;;27.50;93.00;;;;;;4982763;28;20045;-77
2023/07/07 11:37:00;;;;;;;6.10;2.72;;;27.80;92.70;;;;;;4980474;28;20038;-75
2023/07/07 11:39:43;;;;;;;6.28;3.38;;;28.00;92.80;;;;;;4987854;28;20031;-74
2023/07/07 11:42:33;;;;;;;7.65;3.03;;;27.80;92.20;;;;;;4987897;28;20538;-73
2023/07/07 11:45:11;;;;;;;7.80;3.30;;;27.60;93.00;;;;;;4970533;28;20468;-73
2023/07/07 11:48:20;;;;;;;8.35;3.72;;;27.60;93.50;;;;;;4969545;28;20042;-73
2023/07/07 11:50:49;;;;;;;6.43;3.63;;;27.80;94.40;;;;;;4988068;28;20030;-73
2023/07/07 11:53:52;;;;;;;8.98;3.45;;;27.90;94.40;;;;;;4988882;28;20464;-73
2023/07/07 11:56:49;;;;;;;10.68;3.85;;;28.00;93.70;;;;;;4986415;28;20062;-74
2023/07/07 11:59:41;;;;;;;7.85;3.50;;;28.20;93.30;;;;;;4970857;28;20046;-73
2023/07/07 12:02:23;;;;;;;7.63;4.05;;;28.10;92.50;;;;;;4967112;28;20042;-73
2023/07/07 12:04:51;;;;;;;6.68;3.40;;;28.00;93.00;;;;;;4980790;28;20250;-74
2023/07/07 12:07:31;;;;;;;6.63;3.53;;;27.60;92.00;;;;;;4979657;28;20022;-73
2023/07/07 12:10:09;;;;;;;7.75;3.15;;;27.80;93.00;;;;;;4972098;28;20045;-74
2023/07/07 12:12:45;;;;;;;5.25;3.13;;;28.20;94.70;;;;;;4976086;28;20469;-73
2023/07/07 12:15:24;;;;;;;6.50;3.10;;;28.40;93.90;;;;;;4984435;28;20038;-72
2023/07/07 12:18:07;;;;;;;5.75;2.75;;;27.90;91.90;;;;;;4987245;28;20088;-75
2023/07/07 12:20:37;;;;;;;5.78;2.75;;;27.90;91.80;;;;;;4979993;28;20018;-72
2023/07/07 12:23:04;;;;;;;4.75;2.83;;;28.00;92.10;;;;;;4984254;28;20031;-74
2023/07/07 12:25:30;;;;;;;5.80;2.92;;;28.50;93.10;;;;;;4965699;28;20688;-75
2023/07/07 12:27:57;;;;;;;6.07;3.10;;;28.80;93.50;;;;;;4980061;28;20065;-73
2023/07/07 12:30:44;;;;;;;4.18;2.40;;;28.80;92.90;;;;;;4982451;28;20034;-73
2023/07/07 12:33:11;;;;;;;6.47;3.20;;;28.80;92.50;;;;;;4984346;28;20037;-73
2023/07/07 12:35:56;;;;;;;4.85;2.65;;;28.90;93.00;;;;;;4984349;28;20031;-75
2023/07/07 12:38:30;;;;;;;3.92;2.33;;;29.10;94.10;;;;;;4972940;28;20039;-74
2023/07/07 12:41:10;;;;;;;5.05;3.13;;;29.30;93.70;;;;;;4972269;28;20096;-74
2023/07/07 12:43:43;;;;;;;6.80;2.78;;;29.40;93.60;;;;;;4980273;28;20081;-75
2023/07/07 12:46:36;;;;;;;4.82;2.55;;;29.20;93.10;;;;;;4985127;28;20033;-75
2023/07/07 12:49:38;;;;;;;5.65;2.83;;;29.30;93.40;;;;;;4984728;28;20042;-74
2023/07/07 12:52:12;;;;;;;4.45;2.70;;;29.40;92.60;;;;;;4978473;28;20103;-74
2023/07/07 12:54:37;;;;;;;4.25;2.53;;;29.50;93.70;;;;;;4984341;28;20068;-74
2023/07/07 12:57:19;;;;;;;6.18;2.97;;;29.50;93.20;;;;;;4984269;28;20081;-74
2023/07/07 12:59:45;;;;;;;5.90;2.65;;;29.50;92.40;;;;;;4985332;28;20049;-77
2023/07/07 13:02:24;;;;;;;4.95;2.50;;;29.50;93.40;;;;;;4982559;28;20084;-74
2023/07/07 13:05:22;;;;;;;4.93;2.55;;;29.60;92.80;;;;;;4985426;28;20528;-75
2023/07/07 13:08:00;;;;;;;5.57;3.13;;;29.50;92.80;;;;;;4974043;28;20034;-73